sensor_id;sensor_type;location;lat;lon;timestamp;P1;durP1;ratioP1;P2;durP2;ratioP2
82835;SDS011;72587;50.746;8.246;2023-11-19T00:01:35;9.07;;;5.57;;
82835;SDS011;72587;50.746;8.246;2023-11-19T00:04:01;9.10;;;4.97;;
82835;SDS011;72587;50.746;8.246;2023-11-19T00:06:29;6.30;;;4.20;;
82835;SDS011;72587;50.746;8.246;2023-11-19T00:08:55;7.50;;;4.70;;
82835;SDS011;72587;50.746;8.246;2023-11-19T00:11:21;7.23;;;4.27;;
82835;SDS011;72587;50.746;8.246;2023-11-19T00:13:46;5.80;;;3.83;;
82835;SDS011;72587;50.746;8.246;2023-11-19T00:16:12;8.00;;;3.90;;
82835;SDS011;72587;50.746;8.246;2023-11-19T00:18:37;7.23;;;4.10;;
82835;SDS011;72587;50.746;8.246;2023-11-19T00:21:03;12.50;;;4.90;;
82835;SDS011;72587;50.746;8.246;2023-11-19T00:23:29;10.13;;;4.70;;
82835;SDS011;72587;50.746;8.246;2023-11-19T00:25:54;7.13;;;4.20;;
82835;SDS011;72587;50.746;8.246;2023-11-19T00:28:20;7.13;;;4.57;;
82835;SDS011;72587;50.746;8.246;2023-11-19T00:30:45;7.73;;;4.70;;
82835;SDS011;72587;50.746;8.246;2023-11-19T00:33:11;7.53;;;4.47;;
82835;SDS011;72587;50.746;8.246;2023-11-19T00:35:36;6.97;;;4.17;;
82835;SDS011;72587;50.746;8.246;2023-11-19T00:38:02;9.07;;;4.83;;
82835;SDS011;72587;50.746;8.246;2023-11-19T00:40:29;11.73;;;5.33;;
82835;SDS011;72587;50.746;8.246;2023-11-19T00:42:54;14.83;;;5.60;;
82835;SDS011;72587;50.746;8.246;2023-11-19T00:45:20;9.33;;;4.73;;
82835;SDS011;72587;50.746;8.246;2023-11-19T00:47:45;10.27;;;4.83;;
82835;SDS011;72587;50.746;8.246;2023-11-19T00:50:11;9.47;;;4.80;;
82835;SDS011;72587;50.746;8.246;2023-11-19T00:52:38;9.07;;;5.07;;
82835;SDS011;72587;50.746;8.246;2023-11-19T00:55:04;11.70;;;5.00;;
82835;SDS011;72587;50.746;8.246;2023-11-19T00:57:30;7.73;;;4.80;;
82835;SDS011;72587;50.746;8.246;2023-11-19T00:59:58;8.60;;;4.63;;
82835;SDS011;72587;50.746;8.246;2023-11-19T01:02:24;9.27;;;5.43;;
82835;SDS011;72587;50.746;8.246;2023-11-19T01:04:49;10.27;;;5.00;;
82835;SDS011;72587;50.746;8.246;2023-11-19T01:07:15;9.87;;;4.90;;
82835;SDS011;72587;50.746;8.246;2023-11-19T01:09:41;9.07;;;4.90;;
82835;SDS011;72587;50.746;8.246;2023-11-19T01:12:07;8.00;;;4.80;;
82835;SDS011;72587;50.746;8.246;2023-11-19T01:14:34;7.80;;;4.77;;
82835;SDS011;72587;50.746;8.246;2023-11-19T01:17:00;9.27;;;5.23;;
82835;SDS011;72587;50.746;8.246;2023-11-19T01:19:26;12.33;;;4.73;;
82835;SDS011;72587;50.746;8.246;2023-11-19T01:21:53;9.30;;;4.93;;
82835;SDS011;72587;50.746;8.246;2023-11-19T01:24:19;9.70;;;5.23;;
82835;SDS011;72587;50.746;8.246;2023-11-19T01:26:44;9.47;;;5.27;;
82835;SDS011;72587;50.746;8.246;2023-11-19T01:29:14;10.43;;;5.03;;
82835;SDS011;72587;50.746;8.246;2023-11-19T01:31:43;17.83;;;5.73;;
82835;SDS011;72587;50.746;8.246;2023-11-19T01:34:11;9.20;;;5.43;;
82835;SDS011;72587;50.746;8.246;2023-11-19T01:36:36;9.13;;;5.40;;
82835;SDS011;72587;50.746;8.246;2023-11-19T01:39:02;9.03;;;5.47;;
82835;SDS011;72587;50.746;8.246;2023-11-19T01:41:29;9.90;;;5.50;;
82835;SDS011;72587;50.746;8.246;2023-11-19T01:43:59;13.20;;;5.30;;
82835;SDS011;72587;50.746;8.246;2023-11-19T01:46:24;12.67;;;6.07;;
82835;SDS011;72587;50.746;8.246;2023-11-19T01:48:51;12.57;;;6.00;;
82835;SDS011;72587;50.746;8.246;2023-11-19T01:51:17;16.50;;;6.30;;
82835;SDS011;72587;50.746;8.246;2023-11-19T01:53:43;9.97;;;5.53;;
82835;SDS011;72587;50.746;8.246;2023-11-19T01:56:09;14.83;;;5.20;;
82835;SDS011;72587;50.746;8.246;2023-11-19T01:58:37;8.23;;;4.87;;
82835;SDS011;72587;50.746;8.246;2023-11-19T02:01:04;11.70;;;5.57;;
82835;SDS011;72587;50.746;8.246;2023-11-19T02:03:33;10.90;;;5.53;;
82835;SDS011;72587;50.746;8.246;2023-11-19T02:05:59;9.33;;;4.63;;
82835;SDS011;72587;50.746;8.246;2023-11-19T02:08:25;7.87;;;4.50;;
82835;SDS011;72587;50.746;8.246;2023-11-19T02:10:51;8.60;;;4.93;;
82835;SDS011;72587;50.746;8.246;2023-11-19T02:13:17;9.07;;;4.77;;
82835;SDS011;72587;50.746;8.246;2023-11-19T02:15:43;9.40;;;5.27;;
82835;SDS011;72587;50.746;8.246;2023-11-19T02:20:55;6.97;;;4.10;;
82835;SDS011;72587;50.746;8.246;2023-11-19T02:23:21;6.00;;;3.83;;
82835;SDS011;72587;50.746;8.246;2023-11-19T02:26:01;9.17;;;4.20;;
82835;SDS011;72587;50.746;8.246;2023-11-19T02:28:33;7.70;;;4.47;;
82835;SDS011;72587;50.746;8.246;2023-11-19T02:31:01;10.93;;;4.40;;
82835;SDS011;72587;50.746;8.246;2023-11-19T02:33:29;7.60;;;4.10;;
82835;SDS011;72587;50.746;8.246;2023-11-19T02:35:55;5.73;;;3.60;;
82835;SDS011;72587;50.746;8.246;2023-11-19T02:38:21;6.10;;;3.70;;
82835;SDS011;72587;50.746;8.246;2023-11-19T02:40:47;6.90;;;3.57;;
82835;SDS011;72587;50.746;8.246;2023-11-19T02:43:14;5.83;;;3.40;;
82835;SDS011;72587;50.746;8.246;2023-11-19T02:45:40;7.90;;;4.00;;
82835;SDS011;72587;50.746;8.246;2023-11-19T02:48:05;5.63;;;3.40;;
82835;SDS011;72587;50.746;8.246;2023-11-19T02:50:31;7.90;;;4.83;;
82835;SDS011;72587;50.746;8.246;2023-11-19T02:52:57;10.77;;;3.97;;
82835;SDS011;72587;50.746;8.246;2023-11-19T02:55:23;8.43;;;4.07;;
82835;SDS011;72587;50.746;8.246;2023-11-19T02:57:49;9.70;;;4.30;;
82835;SDS011;72587;50.746;8.246;2023-11-19T03:00:16;8.60;;;4.10;;
82835;SDS011;72587;50.746;8.246;2023-11-19T03:02:56;7.17;;;4.63;;
82835;SDS011;72587;50.746;8.246;2023-11-19T03:05:30;8.23;;;4.07;;
82835;SDS011;72587;50.746;8.246;2023-11-19T03:07:56;7.63;;;4.10;;
82835;SDS011;72587;50.746;8.246;2023-11-19T03:10:22;6.70;;;3.70;;
82835;SDS011;72587;50.746;8.246;2023-11-19T03:12:48;8.27;;;4.10;;
82835;SDS011;72587;50.746;8.246;2023-11-19T03:15:14;13.67;;;3.87;;
82835;SDS011;72587;50.746;8.246;2023-11-19T03:17:41;9.73;;;3.97;;
82835;SDS011;72587;50.746;8.246;2023-11-19T03:20:10;11.40;;;4.27;;
82835;SDS011;72587;50.746;8.246;2023-11-19T03:22:40;7.20;;;3.87;;
82835;SDS011;72587;50.746;8.246;2023-11-19T03:25:09;6.83;;;3.60;;
82835;SDS011;72587;50.746;8.246;2023-11-19T03:27:35;9.03;;;3.50;;
82835;SDS011;72587;50.746;8.246;2023-11-19T03:30:07;5.10;;;3.00;;
82835;SDS011;72587;50.746;8.246;2023-11-19T03:32:36;5.83;;;3.17;;
82835;SDS011;72587;50.746;8.246;2023-11-19T03:35:03;4.00;;;2.70;;
82835;SDS011;72587;50.746;8.246;2023-11-19T03:37:32;7.77;;;2.90;;
82835;SDS011;72587;50.746;8.246;2023-11-19T03:39:57;5.47;;;3.20;;
82835;SDS011;72587;50.746;8.246;2023-11-19T03:42:25;7.83;;;3.27;;
82835;SDS011;72587;50.746;8.246;2023-11-19T03:44:52;7.60;;;3.73;;
82835;SDS011;72587;50.746;8.246;2023-11-19T03:47:18;9.30;;;3.27;;
82835;SDS011;72587;50.746;8.246;2023-11-19T03:49:50;7.87;;;3.63;;
82835;SDS011;72587;50.746;8.246;2023-11-19T03:52:16;5.47;;;3.50;;
82835;SDS011;72587;50.746;8.246;2023-11-19T03:54:42;7.50;;;3.60;;
82835;SDS011;72587;50.746;8.246;2023-11-19T03:57:09;9.20;;;2.90;;
82835;SDS011;72587;50.746;8.246;2023-11-19T03:59:37;8.13;;;2.90;;
82835;SDS011;72587;50.746;8.246;2023-11-19T04:02:03;11.50;;;3.17;;
82835;SDS011;72587;50.746;8.246;2023-11-19T04:04:28;6.33;;;2.67;;
82835;SDS011;72587;50.746;8.246;2023-11-19T04:06:54;5.90;;;3.20;;
82835;SDS011;72587;50.746;8.246;2023-11-19T04:09:20;10.10;;;3.20;;
82835;SDS011;72587;50.746;8.246;2023-11-19T04:11:46;5.90;;;2.73;;
82835;SDS011;72587;50.746;8.246;2023-11-19T04:14:12;7.73;;;2.43;;
82835;SDS011;72587;50.746;8.246;2023-11-19T04:16:38;4.37;;;2.80;;
82835;SDS011;72587;50.746;8.246;2023-11-19T04:19:04;8.37;;;2.83;;
82835;SDS011;72587;50.746;8.246;2023-11-19T04:21:30;6.10;;;2.63;;
82835;SDS011;72587;50.746;8.246;2023-11-19T04:23:55;8.87;;;2.70;;
82835;SDS011;72587;50.746;8.246;2023-11-19T04:26:21;7.77;;;2.40;;
82835;SDS011;72587;50.746;8.246;2023-11-19T04:28:47;8.97;;;3.10;;
82835;SDS011;72587;50.746;8.246;2023-11-19T04:31:14;7.17;;;3.07;;
82835;SDS011;72587;50.746;8.246;2023-11-19T04:33:43;7.80;;;2.50;;
82835;SDS011;72587;50.746;8.246;2023-11-19T04:36:09;5.30;;;2.67;;
82835;SDS011;72587;50.746;8.246;2023-11-19T04:38:35;4.53;;;2.20;;
82835;SDS011;72587;50.746;8.246;2023-11-19T04:41:03;5.73;;;2.50;;
82835;SDS011;72587;50.746;8.246;2023-11-19T04:43:30;9.83;;;3.03;;
82835;SDS011;72587;50.746;8.246;2023-11-19T04:45:56;8.63;;;2.90;;
82835;SDS011;72587;50.746;8.246;2023-11-19T04:48:22;13.50;;;3.77;;
82835;SDS011;72587;50.746;8.246;2023-11-19T04:50:48;9.80;;;3.50;;
82835;SDS011;72587;50.746;8.246;2023-11-19T04:53:15;6.73;;;3.23;;
82835;SDS011;72587;50.746;8.246;2023-11-19T04:55:42;9.70;;;2.80;;
82835;SDS011;72587;50.746;8.246;2023-11-19T04:58:07;12.47;;;3.90;;
82835;SDS011;72587;50.746;8.246;2023-11-19T05:00:33;12.13;;;3.30;;
82835;SDS011;72587;50.746;8.246;2023-11-19T05:02:59;9.83;;;2.97;;
82835;SDS011;72587;50.746;8.246;2023-11-19T05:05:24;13.40;;;3.07;;
82835;SDS011;72587;50.746;8.246;2023-11-19T05:07:50;7.43;;;2.70;;
82835;SDS011;72587;50.746;8.246;2023-11-19T05:10:15;7.10;;;2.63;;
82835;SDS011;72587;50.746;8.246;2023-11-19T05:12:41;7.97;;;2.93;;
82835;SDS011;72587;50.746;8.246;2023-11-19T05:15:07;9.77;;;2.80;;
82835;SDS011;72587;50.746;8.246;2023-11-19T05:17:33;11.23;;;3.53;;
82835;SDS011;72587;50.746;8.246;2023-11-19T05:19:58;13.47;;;3.93;;
82835;SDS011;72587;50.746;8.246;2023-11-19T05:22:24;6.57;;;2.87;;
82835;SDS011;72587;50.746;8.246;2023-11-19T05:24:51;4.80;;;2.40;;
82835;SDS011;72587;50.746;8.246;2023-11-19T05:27:17;5.73;;;2.47;;
82835;SDS011;72587;50.746;8.246;2023-11-19T05:29:42;4.23;;;2.23;;
82835;SDS011;72587;50.746;8.246;2023-11-19T05:32:09;6.73;;;2.40;;
82835;SDS011;72587;50.746;8.246;2023-11-19T05:34:35;4.53;;;2.57;;
82835;SDS011;72587;50.746;8.246;2023-11-19T05:37:00;5.87;;;2.40;;
82835;SDS011;72587;50.746;8.246;2023-11-19T05:39:26;8.47;;;2.33;;
82835;SDS011;72587;50.746;8.246;2023-11-19T05:41:52;5.67;;;2.40;;
82835;SDS011;72587;50.746;8.246;2023-11-19T05:44:18;5.60;;;2.40;;
82835;SDS011;72587;50.746;8.246;2023-11-19T05:46:44;7.97;;;2.37;;
82835;SDS011;72587;50.746;8.246;2023-11-19T05:49:10;6.23;;;2.10;;
82835;SDS011;72587;50.746;8.246;2023-11-19T05:51:37;7.93;;;2.27;;
82835;SDS011;72587;50.746;8.246;2023-11-19T05:54:03;8.03;;;3.37;;
82835;SDS011;72587;50.746;8.246;2023-11-19T05:56:32;10.53;;;4.73;;
82835;SDS011;72587;50.746;8.246;2023-11-19T05:58:58;12.77;;;4.33;;
82835;SDS011;72587;50.746;8.246;2023-11-19T06:01:29;5.83;;;2.30;;
82835;SDS011;72587;50.746;8.246;2023-11-19T06:03:54;14.10;;;2.33;;
82835;SDS011;72587;50.746;8.246;2023-11-19T06:06:20;14.93;;;2.50;;
82835;SDS011;72587;50.746;8.246;2023-11-19T06:08:45;13.57;;;2.13;;
82835;SDS011;72587;50.746;8.246;2023-11-19T06:11:11;11.33;;;2.60;;
82835;SDS011;72587;50.746;8.246;2023-11-19T06:13:43;8.37;;;1.60;;
82835;SDS011;72587;50.746;8.246;2023-11-19T06:16:09;15.50;;;2.50;;
82835;SDS011;72587;50.746;8.246;2023-11-19T06:18:36;12.70;;;2.30;;
82835;SDS011;72587;50.746;8.246;2023-11-19T06:21:02;15.90;;;2.70;;
82835;SDS011;72587;50.746;8.246;2023-11-19T06:23:27;15.37;;;2.60;;
82835;SDS011;72587;50.746;8.246;2023-11-19T06:25:53;14.13;;;2.10;;
82835;SDS011;72587;50.746;8.246;2023-11-19T06:28:19;15.80;;;2.50;;
82835;SDS011;72587;50.746;8.246;2023-11-19T06:30:44;16.63;;;2.40;;
82835;SDS011;72587;50.746;8.246;2023-11-19T06:33:12;17.13;;;2.40;;
82835;SDS011;72587;50.746;8.246;2023-11-19T06:35:39;10.87;;;2.20;;
82835;SDS011;72587;50.746;8.246;2023-11-19T06:38:04;12.03;;;2.37;;
82835;SDS011;72587;50.746;8.246;2023-11-19T06:40:30;12.20;;;2.43;;
82835;SDS011;72587;50.746;8.246;2023-11-19T06:42:56;18.83;;;2.17;;
82835;SDS011;72587;50.746;8.246;2023-11-19T06:45:22;17.07;;;2.53;;
82835;SDS011;72587;50.746;8.246;2023-11-19T06:47:48;20.57;;;2.40;;
82835;SDS011;72587;50.746;8.246;2023-11-19T06:50:13;11.73;;;2.10;;
82835;SDS011;72587;50.746;8.246;2023-11-19T06:52:40;5.17;;;1.50;;
82835;SDS011;72587;50.746;8.246;2023-11-19T06:55:06;8.67;;;1.70;;
82835;SDS011;72587;50.746;8.246;2023-11-19T06:57:32;10.33;;;1.80;;
82835;SDS011;72587;50.746;8.246;2023-11-19T06:59:58;13.00;;;1.90;;
82835;SDS011;72587;50.746;8.246;2023-11-19T07:02:24;15.63;;;2.60;;
82835;SDS011;72587;50.746;8.246;2023-11-19T07:04:50;20.00;;;2.60;;
82835;SDS011;72587;50.746;8.246;2023-11-19T07:07:15;18.27;;;2.67;;
82835;SDS011;72587;50.746;8.246;2023-11-19T07:09:41;13.93;;;2.87;;
82835;SDS011;72587;50.746;8.246;2023-11-19T07:12:07;16.77;;;5.20;;
82835;SDS011;72587;50.746;8.246;2023-11-19T07:14:33;12.70;;;1.97;;
82835;SDS011;72587;50.746;8.246;2023-11-19T07:16:59;19.77;;;2.43;;
82835;SDS011;72587;50.746;8.246;2023-11-19T07:19:25;17.87;;;3.00;;
82835;SDS011;72587;50.746;8.246;2023-11-19T07:21:51;14.47;;;2.20;;
82835;SDS011;72587;50.746;8.246;2023-11-19T07:24:19;13.60;;;2.70;;
82835;SDS011;72587;50.746;8.246;2023-11-19T07:26:45;14.60;;;2.73;;
82835;SDS011;72587;50.746;8.246;2023-11-19T07:29:14;12.50;;;3.33;;
82835;SDS011;72587;50.746;8.246;2023-11-19T07:31:41;15.93;;;2.67;;
82835;SDS011;72587;50.746;8.246;2023-11-19T07:34:09;16.60;;;2.83;;
82835;SDS011;72587;50.746;8.246;2023-11-19T07:36:35;18.33;;;2.67;;
82835;SDS011;72587;50.746;8.246;2023-11-19T07:39:01;20.03;;;3.03;;
82835;SDS011;72587;50.746;8.246;2023-11-19T07:41:27;22.93;;;3.53;;
82835;SDS011;72587;50.746;8.246;2023-11-19T07:43:53;14.70;;;3.27;;
82835;SDS011;72587;50.746;8.246;2023-11-19T07:46:19;17.93;;;2.57;;
82835;SDS011;72587;50.746;8.246;2023-11-19T07:48:45;18.73;;;2.47;;
82835;SDS011;72587;50.746;8.246;2023-11-19T07:51:14;21.13;;;2.80;;
82835;SDS011;72587;50.746;8.246;2023-11-19T07:53:40;21.63;;;3.30;;
82835;SDS011;72587;50.746;8.246;2023-11-19T07:56:06;12.37;;;2.50;;
82835;SDS011;72587;50.746;8.246;2023-11-19T07:58:32;17.60;;;2.50;;
82835;SDS011;72587;50.746;8.246;2023-11-19T08:00:58;15.70;;;2.80;;
82835;SDS011;72587;50.746;8.246;2023-11-19T08:03:24;17.93;;;3.40;;
82835;SDS011;72587;50.746;8.246;2023-11-19T08:05:49;17.83;;;2.50;;
82835;SDS011;72587;50.746;8.246;2023-11-19T08:08:15;15.53;;;2.70;;
82835;SDS011;72587;50.746;8.246;2023-11-19T08:10:42;17.57;;;2.77;;
82835;SDS011;72587;50.746;8.246;2023-11-19T08:13:09;20.27;;;3.13;;
82835;SDS011;72587;50.746;8.246;2023-11-19T08:15:35;16.90;;;2.70;;
82835;SDS011;72587;50.746;8.246;2023-11-19T08:18:01;16.00;;;2.80;;
82835;SDS011;72587;50.746;8.246;2023-11-19T08:20:27;16.20;;;3.27;;
82835;SDS011;72587;50.746;8.246;2023-11-19T08:22:52;19.17;;;3.63;;
82835;SDS011;72587;50.746;8.246;2023-11-19T08:25:18;22.93;;;3.77;;
82835;SDS011;72587;50.746;8.246;2023-11-19T08:27:43;15.77;;;2.90;;
82835;SDS011;72587;50.746;8.246;2023-11-19T08:30:09;21.90;;;3.43;;
82835;SDS011;72587;50.746;8.246;2023-11-19T08:32:35;22.33;;;2.90;;
82835;SDS011;72587;50.746;8.246;2023-11-19T08:35:01;19.40;;;3.00;;
82835;SDS011;72587;50.746;8.246;2023-11-19T08:37:26;13.53;;;2.40;;
82835;SDS011;72587;50.746;8.246;2023-11-19T08:39:52;18.43;;;2.50;;
82835;SDS011;72587;50.746;8.246;2023-11-19T08:42:18;18.57;;;2.43;;
82835;SDS011;72587;50.746;8.246;2023-11-19T08:44:48;18.57;;;2.53;;
82835;SDS011;72587;50.746;8.246;2023-11-19T08:47:15;20.93;;;2.93;;
82835;SDS011;72587;50.746;8.246;2023-11-19T08:49:43;20.53;;;3.17;;
82835;SDS011;72587;50.746;8.246;2023-11-19T08:52:09;14.67;;;3.07;;
82835;SDS011;72587;50.746;8.246;2023-11-19T08:54:35;15.03;;;3.00;;
82835;SDS011;72587;50.746;8.246;2023-11-19T08:57:01;24.93;;;2.90;;
82835;SDS011;72587;50.746;8.246;2023-11-19T08:59:28;15.93;;;3.00;;
82835;SDS011;72587;50.746;8.246;2023-11-19T09:01:54;18.27;;;3.57;;
82835;SDS011;72587;50.746;8.246;2023-11-19T09:04:19;20.80;;;2.80;;
82835;SDS011;72587;50.746;8.246;2023-11-19T09:06:47;19.50;;;2.70;;
82835;SDS011;72587;50.746;8.246;2023-11-19T09:09:13;15.93;;;3.07;;
82835;SDS011;72587;50.746;8.246;2023-11-19T09:11:39;16.77;;;2.77;;
82835;SDS011;72587;50.746;8.246;2023-11-19T09:14:04;22.60;;;3.03;;
82835;SDS011;72587;50.746;8.246;2023-11-19T09:16:30;22.70;;;3.53;;
82835;SDS011;72587;50.746;8.246;2023-11-19T09:18:55;22.10;;;3.50;;
82835;SDS011;72587;50.746;8.246;2023-11-19T09:21:23;24.33;;;4.83;;
82835;SDS011;72587;50.746;8.246;2023-11-19T09:23:48;19.63;;;3.10;;
82835;SDS011;72587;50.746;8.246;2023-11-19T09:26:14;17.67;;;3.23;;
82835;SDS011;72587;50.746;8.246;2023-11-19T09:28:39;15.23;;;3.27;;
82835;SDS011;72587;50.746;8.246;2023-11-19T09:31:12;24.73;;;3.40;;
82835;SDS011;72587;50.746;8.246;2023-11-19T09:33:41;21.70;;;4.00;;
82835;SDS011;72587;50.746;8.246;2023-11-19T09:36:07;19.93;;;3.80;;
82835;SDS011;72587;50.746;8.246;2023-11-19T09:38:33;19.43;;;3.23;;
82835;SDS011;72587;50.746;8.246;2023-11-19T09:41:03;23.40;;;3.40;;
82835;SDS011;72587;50.746;8.246;2023-11-19T09:43:33;17.90;;;3.10;;
82835;SDS011;72587;50.746;8.246;2023-11-19T09:45:59;13.07;;;2.97;;
82835;SDS011;72587;50.746;8.246;2023-11-19T09:48:32;15.27;;;3.33;;
82835;SDS011;72587;50.746;8.246;2023-11-19T09:51:05;22.40;;;2.70;;
82835;SDS011;72587;50.746;8.246;2023-11-19T09:53:32;14.03;;;2.60;;
82835;SDS011;72587;50.746;8.246;2023-11-19T09:55:59;21.67;;;3.00;;
82835;SDS011;72587;50.746;8.246;2023-11-19T09:58:27;23.67;;;2.90;;
82835;SDS011;72587;50.746;8.246;2023-11-19T10:00:54;21.27;;;2.90;;
82835;SDS011;72587;50.746;8.246;2023-11-19T10:03:19;17.83;;;3.47;;
82835;SDS011;72587;50.746;8.246;2023-11-19T10:05:47;21.63;;;2.47;;
82835;SDS011;72587;50.746;8.246;2023-11-19T10:08:13;20.73;;;3.30;;
82835;SDS011;72587;50.746;8.246;2023-11-19T10:10:39;22.73;;;3.30;;
82835;SDS011;72587;50.746;8.246;2023-11-19T10:13:05;27.33;;;7.03;;
82835;SDS011;72587;50.746;8.246;2023-11-19T10:15:35;18.50;;;5.60;;
82835;SDS011;72587;50.746;8.246;2023-11-19T10:18:02;25.40;;;5.13;;
82835;SDS011;72587;50.746;8.246;2023-11-19T10:20:37;36.63;;;8.40;;
82835;SDS011;72587;50.746;8.246;2023-11-19T10:23:05;19.27;;;4.73;;
82835;SDS011;72587;50.746;8.246;2023-11-19T10:25:30;30.10;;;5.57;;
82835;SDS011;72587;50.746;8.246;2023-11-19T10:27:58;20.23;;;3.67;;
82835;SDS011;72587;50.746;8.246;2023-11-19T10:30:25;23.80;;;4.17;;
82835;SDS011;72587;50.746;8.246;2023-11-19T10:35:35;17.17;;;3.40;;
82835;SDS011;72587;50.746;8.246;2023-11-19T10:38:14;21.73;;;3.40;;
82835;SDS011;72587;50.746;8.246;2023-11-19T10:40:40;15.20;;;2.60;;
82835;SDS011;72587;50.746;8.246;2023-11-19T10:43:06;21.10;;;2.70;;
82835;SDS011;72587;50.746;8.246;2023-11-19T10:45:33;21.80;;;3.20;;
82835;SDS011;72587;50.746;8.246;2023-11-19T10:48:03;16.23;;;2.80;;
82835;SDS011;72587;50.746;8.246;2023-11-19T10:50:36;15.23;;;2.43;;
82835;SDS011;72587;50.746;8.246;2023-11-19T10:53:02;19.37;;;3.93;;
82835;SDS011;72587;50.746;8.246;2023-11-19T10:55:30;17.70;;;3.20;;
82835;SDS011;72587;50.746;8.246;2023-11-19T10:57:59;22.73;;;2.87;;
82835;SDS011;72587;50.746;8.246;2023-11-19T11:00:26;24.43;;;3.67;;
82835;SDS011;72587;50.746;8.246;2023-11-19T11:03:14;22.03;;;3.37;;
82835;SDS011;72587;50.746;8.246;2023-11-19T11:05:40;20.27;;;3.27;;
82835;SDS011;72587;50.746;8.246;2023-11-19T11:08:06;24.20;;;4.03;;
82835;SDS011;72587;50.746;8.246;2023-11-19T11:10:34;21.47;;;3.23;;
82835;SDS011;72587;50.746;8.246;2023-11-19T11:13:07;17.40;;;2.67;;
82835;SDS011;72587;50.746;8.246;2023-11-19T11:15:32;16.77;;;2.80;;
82835;SDS011;72587;50.746;8.246;2023-11-19T11:18:00;20.77;;;3.07;;
82835;SDS011;72587;50.746;8.246;2023-11-19T11:20:32;28.13;;;4.32;;
82835;SDS011;72587;50.746;8.246;2023-11-19T11:31:09;22.03;;;2.70;;
82835;SDS011;72587;50.746;8.246;2023-11-19T11:34:06;19.00;;;2.93;;
82835;SDS011;72587;50.746;8.246;2023-11-19T11:39:52;22.43;;;3.63;;
82835;SDS011;72587;50.746;8.246;2023-11-19T11:50:13;25.57;;;2.93;;
82835;SDS011;72587;50.746;8.246;2023-11-19T11:55:27;22.60;;;2.87;;
82835;SDS011;72587;50.746;8.246;2023-11-19T11:57:56;24.47;;;3.40;;
82835;SDS011;72587;50.746;8.246;2023-11-19T12:00:22;19.10;;;2.87;;
82835;SDS011;72587;50.746;8.246;2023-11-19T12:02:52;21.30;;;3.33;;
82835;SDS011;72587;50.746;8.246;2023-11-19T12:05:26;22.30;;;2.87;;
82835;SDS011;72587;50.746;8.246;2023-11-19T12:07:55;17.70;;;2.40;;
82835;SDS011;72587;50.746;8.246;2023-11-19T12:10:29;23.10;;;2.90;;
82835;SDS011;72587;50.746;8.246;2023-11-19T12:13:04;18.20;;;2.70;;
82835;SDS011;72587;50.746;8.246;2023-11-19T12:15:32;20.17;;;3.23;;
82835;SDS011;72587;50.746;8.246;2023-11-19T12:17:58;15.03;;;2.80;;
82835;SDS011;72587;50.746;8.246;2023-11-19T12:20:24;22.17;;;2.90;;
82835;SDS011;72587;50.746;8.246;2023-11-19T12:22:51;18.00;;;3.27;;
82835;SDS011;72587;50.746;8.246;2023-11-19T12:25:18;20.47;;;2.97;;
82835;SDS011;72587;50.746;8.246;2023-11-19T12:27:45;19.40;;;3.17;;
82835;SDS011;72587;50.746;8.246;2023-11-19T12:30:14;13.70;;;2.50;;
82835;SDS011;72587;50.746;8.246;2023-11-19T12:32:44;21.60;;;3.53;;
82835;SDS011;72587;50.746;8.246;2023-11-19T12:35:11;25.07;;;7.27;;
82835;SDS011;72587;50.746;8.246;2023-11-19T12:37:47;26.80;;;6.50;;
82835;SDS011;72587;50.746;8.246;2023-11-19T12:40:15;31.67;;;6.83;;
82835;SDS011;72587;50.746;8.246;2023-11-19T12:42:42;27.67;;;4.27;;
82835;SDS011;72587;50.746;8.246;2023-11-19T12:45:08;18.97;;;2.93;;
82835;SDS011;72587;50.746;8.246;2023-11-19T12:47:37;13.53;;;2.10;;
82835;SDS011;72587;50.746;8.246;2023-11-19T12:50:03;17.77;;;3.43;;
82835;SDS011;72587;50.746;8.246;2023-11-19T12:52:29;14.90;;;2.60;;
82835;SDS011;72587;50.746;8.246;2023-11-19T12:54:55;20.37;;;2.90;;
82835;SDS011;72587;50.746;8.246;2023-11-19T12:57:35;16.63;;;2.37;;
82835;SDS011;72587;50.746;8.246;2023-11-19T13:00:19;26.30;;;3.20;;
82835;SDS011;72587;50.746;8.246;2023-11-19T13:02:53;15.37;;;2.73;;
82835;SDS011;72587;50.746;8.246;2023-11-19T13:05:20;22.30;;;2.63;;
82835;SDS011;72587;50.746;8.246;2023-11-19T13:07:58;20.57;;;3.13;;
82835;SDS011;72587;50.746;8.246;2023-11-19T13:10:28;17.47;;;3.00;;
82835;SDS011;72587;50.746;8.246;2023-11-19T13:13:01;17.17;;;3.17;;
82835;SDS011;72587;50.746;8.246;2023-11-19T13:15:27;17.33;;;2.40;;
82835;SDS011;72587;50.746;8.246;2023-11-19T13:17:53;15.37;;;2.53;;
82835;SDS011;72587;50.746;8.246;2023-11-19T13:20:19;16.07;;;2.83;;
82835;SDS011;72587;50.746;8.246;2023-11-19T13:22:59;12.73;;;2.27;;
82835;SDS011;72587;50.746;8.246;2023-11-19T13:25:26;10.73;;;2.23;;
82835;SDS011;72587;50.746;8.246;2023-11-19T13:27:53;15.90;;;3.40;;
82835;SDS011;72587;50.746;8.246;2023-11-19T13:30:19;25.60;;;3.00;;
82835;SDS011;72587;50.746;8.246;2023-11-19T13:32:45;13.20;;;2.20;;
82835;SDS011;72587;50.746;8.246;2023-11-19T13:35:14;16.47;;;2.63;;
82835;SDS011;72587;50.746;8.246;2023-11-19T13:37:40;9.07;;;2.00;;
82835;SDS011;72587;50.746;8.246;2023-11-19T13:40:06;14.83;;;2.43;;
82835;SDS011;72587;50.746;8.246;2023-11-19T13:42:34;16.00;;;2.40;;
82835;SDS011;72587;50.746;8.246;2023-11-19T13:45:07;18.83;;;4.30;;
82835;SDS011;72587;50.746;8.246;2023-11-19T13:47:35;23.07;;;3.53;;
82835;SDS011;72587;50.746;8.246;2023-11-19T13:50:01;12.73;;;2.87;;
82835;SDS011;72587;50.746;8.246;2023-11-19T13:52:31;18.83;;;3.03;;
82835;SDS011;72587;50.746;8.246;2023-11-19T13:54:56;15.60;;;2.90;;
82835;SDS011;72587;50.746;8.246;2023-11-19T13:57:22;16.33;;;2.80;;
82835;SDS011;72587;50.746;8.246;2023-11-19T13:59:47;18.30;;;3.17;;
82835;SDS011;72587;50.746;8.246;2023-11-19T14:02:13;14.67;;;2.87;;
82835;SDS011;72587;50.746;8.246;2023-11-19T14:04:38;15.83;;;3.77;;
82835;SDS011;72587;50.746;8.246;2023-11-19T14:07:04;18.20;;;3.53;;
82835;SDS011;72587;50.746;8.246;2023-11-19T14:09:29;24.60;;;3.00;;
82835;SDS011;72587;50.746;8.246;2023-11-19T14:11:55;11.43;;;3.13;;
82835;SDS011;72587;50.746;8.246;2023-11-19T14:14:20;12.87;;;2.33;;
82835;SDS011;72587;50.746;8.246;2023-11-19T14:16:46;13.90;;;2.40;;
82835;SDS011;72587;50.746;8.246;2023-11-19T14:19:11;11.83;;;2.33;;
82835;SDS011;72587;50.746;8.246;2023-11-19T14:21:38;17.33;;;2.80;;
82835;SDS011;72587;50.746;8.246;2023-11-19T14:24:04;14.03;;;2.40;;
82835;SDS011;72587;50.746;8.246;2023-11-19T14:26:30;13.93;;;3.07;;
82835;SDS011;72587;50.746;8.246;2023-11-19T14:28:56;11.70;;;2.37;;
82835;SDS011;72587;50.746;8.246;2023-11-19T14:31:21;19.40;;;2.40;;
82835;SDS011;72587;50.746;8.246;2023-11-19T14:33:47;16.70;;;2.10;;
82835;SDS011;72587;50.746;8.246;2023-11-19T14:36:13;11.40;;;2.20;;
82835;SDS011;72587;50.746;8.246;2023-11-19T14:38:39;14.07;;;3.00;;
82835;SDS011;72587;50.746;8.246;2023-11-19T14:41:05;14.53;;;2.47;;
82835;SDS011;72587;50.746;8.246;2023-11-19T14:43:30;16.40;;;2.30;;
82835;SDS011;72587;50.746;8.246;2023-11-19T14:45:56;16.73;;;2.83;;
82835;SDS011;72587;50.746;8.246;2023-11-19T14:48:22;16.60;;;2.70;;
82835;SDS011;72587;50.746;8.246;2023-11-19T14:50:48;12.20;;;2.47;;
82835;SDS011;72587;50.746;8.246;2023-11-19T14:53:14;13.57;;;2.60;;
82835;SDS011;72587;50.746;8.246;2023-11-19T14:55:40;17.13;;;2.30;;
82835;SDS011;72587;50.746;8.246;2023-11-19T14:58:06;11.07;;;2.07;;
82835;SDS011;72587;50.746;8.246;2023-11-19T15:00:32;14.13;;;2.10;;
82835;SDS011;72587;50.746;8.246;2023-11-19T15:02:58;11.00;;;2.10;;
82835;SDS011;72587;50.746;8.246;2023-11-19T15:05:24;11.30;;;1.70;;